• LFSB

    METAR de LFSB (émis le 2024/05/21 04:00 UTC):
    LFSB 210400Z AUTO 00000KT 9999 -RA NSC 13/13 Q1008 TEMPO 4500 -RA

    TAF de LFSB (émis le 2024/05/20 22:45 UTC):
    AMD LFSB 202238Z 2022/2118 26020G35KT 2000 TSRA SCT025CB BECMG 2023/2101 23005KT 9999 NSW BKN030 TEMPO 2104/2114 4500 -RA BKN012
  • LFSX

    METAR de LFSX (émis le 2024/05/21 04:00 UTC):
    LFSX 210400Z AUTO 00000KT 1700 0900 R11/1700U BCFG BKN044 OVC160 12/12 Q1009

    TAF de LFSX (émis le 2024/05/17 13:33 UTC):
    LFSX 171326Z 1713/1809 CNL
  • LFSD

    METAR de LFSD (émis le 2024/05/21 04:00 UTC):
    LFSD 210400Z AUTO VRB03KT 2700 BR OVC002 13/13 Q1008

    TAF de LFSD (émis le 2015/06/01 00:11 UTC):
    LFSD 010600Z 0100/0124 CNL
  • LFGJ

    METAR de LFGJ (émis le 2024/05/21 04:00 UTC):
    LFGJ 210400Z AUTO 18005KT 5000 BR BKN001 OVC220 12/12 Q1009

    TAF COURT de LFGJ
    (émis le 2024/05/20 17:06 UTC):
    TAF TAF LFGJ 201700Z 2017/2024 CNL
  • LFJL

    METAR de LFJL (émis le 2024/05/21 04:00 UTC):
    LFJL 210400Z AUTO 31004KT 6000 -RA FEW014/// OVC080/// ///TCU 13/12 Q1008 TEMPO 4500 -RA BECMG NSC

    TAF de LFJL (émis le 2024/05/20 18:21 UTC):
    LFJL 201700Z 2018/2118 VRB03KT CAVOK PROB30 TEMPO 2018/2021 VRB15KT -SHRA SCT040TCU TEMPO 2022/2112 -RA BKN035 PROB40 TEMPO 2108/2112 3000 RA BKN007
  • LFST

    METAR de LFST (émis le 2024/05/21 04:00 UTC):
    LFST 210400Z AUTO VRB01KT 8000 RA ///TCU 14/13 Q1008 TEMPO NSW BKN005 FEW050TCU

    TAF de LFST (émis le 2024/05/20 21:59 UTC):
    AMD LFST 202151Z 2021/2118 04006KT CAVOK TEMPO 2021/2106 -SHRA BKN005 FEW050TCU PROB40 TEMPO 2021/2024 3000 TSRA SCT030CB BECMG 2106/2108 RA BKN030 TEMPO 2110/2114 BKN010 BECMG 2114/2116 20010KT NSW